createdAt,value
2022-10-11T00:02:27.114Z,10.55
2022-10-11T00:05:01.148Z,10.43
2022-10-11T00:07:31.135Z,10.36
2022-10-11T00:10:05.386Z,10.37
2022-10-11T00:12:34.266Z,10.63
2022-10-11T00:15:03.103Z,10.60
2022-10-11T00:17:36.210Z,10.61
2022-10-11T00:20:11.041Z,10.60
2022-10-11T00:22:41.960Z,10.55
2022-10-11T00:25:29.714Z,10.58
2022-10-11T00:28:16.447Z,10.76
2022-10-11T00:31:09.015Z,11.17
2022-10-11T00:33:58.203Z,11.25
2022-10-11T00:36:45.683Z,11.36
2022-10-11T00:39:32.597Z,11.03
2022-10-11T00:42:19.943Z,10.69
2022-10-11T00:45:44.579Z,10.63
2022-10-11T00:48:35.454Z,10.63
2022-10-11T00:51:27.073Z,10.60
2022-10-11T00:54:17.821Z,10.49
2022-10-11T00:57:07.679Z,10.37
2022-10-11T00:59:55.718Z,10.52
2022-10-11T01:02:43.662Z,10.41
2022-10-11T01:05:31.054Z,10.46
2022-10-11T01:08:19.894Z,10.43
2022-10-11T01:11:07.411Z,10.56
2022-10-11T01:14:07.654Z,10.57
2022-10-11T01:16:59.482Z,10.60
2022-10-11T01:19:55.282Z,10.44
2022-10-11T01:23:05.046Z,10.31
2022-10-11T01:26:11.304Z,10.16
2022-10-11T01:29:07.593Z,10.13
2022-10-11T01:32:02.049Z,10.09
2022-10-11T01:34:57.034Z,10.05
2022-10-11T01:37:48.289Z,10.01
2022-10-11T01:40:38.258Z,9.94
2022-10-11T01:43:25.738Z,9.86
2022-10-11T01:46:13.304Z,9.89
2022-10-11T01:49:03.265Z,9.97
2022-10-11T01:51:52.402Z,9.97
2022-10-11T01:55:09.262Z,9.92
2022-10-11T01:58:08.732Z,9.98
2022-10-11T02:01:00.507Z,9.98
2022-10-11T02:03:50.569Z,9.98
2022-10-11T02:06:45.964Z,10.05
2022-10-11T02:09:36.662Z,10.09
2022-10-11T02:12:27.629Z,10.15
2022-10-11T02:15:15.618Z,10.19
2022-10-11T02:18:07.390Z,10.17
2022-10-11T02:20:54.482Z,10.15
2022-10-11T02:23:49.074Z,10.15
2022-10-11T02:26:36.380Z,10.14
2022-10-11T02:29:24.683Z,10.17
2022-10-11T02:32:11.832Z,10.20
2022-10-11T02:35:00.490Z,10.16
2022-10-11T02:37:51.434Z,10.08
2022-10-11T02:40:42.493Z,10.04
2022-10-11T02:43:33.736Z,10.05
2022-10-11T02:46:21.109Z,10.09
2022-10-11T02:49:08.792Z,10.12
2022-10-11T02:51:56.625Z,10.07
2022-10-11T02:54:43.826Z,10.03
2022-10-11T02:57:31.811Z,9.99
2022-10-11T03:00:18.968Z,10.09
2022-10-11T03:03:06.185Z,10.11
2022-10-11T03:05:59.556Z,10.15
2022-10-11T03:08:46.926Z,10.12
2022-10-11T03:11:34.121Z,10.09
2022-10-11T03:14:22.178Z,10.10
2022-10-11T03:17:31.417Z,10.17
2022-10-11T03:20:16.264Z,10.22
2022-10-11T03:23:03.875Z,10.24
2022-10-11T03:25:52.146Z,10.25
2022-10-11T03:28:41.413Z,10.26
2022-10-11T03:31:29.978Z,10.26
2022-10-11T03:34:17.019Z,10.23
2022-10-11T03:37:03.725Z,10.26
2022-10-11T03:39:50.690Z,10.23
2022-10-11T03:42:38.193Z,10.26
2022-10-11T03:45:24.989Z,10.25
2022-10-11T03:48:13.937Z,10.29
2022-10-11T03:51:01.500Z,10.31
2022-10-11T03:53:51.593Z,10.40
2022-10-11T03:56:41.973Z,10.43
2022-10-11T03:59:29.409Z,10.43
2022-10-11T04:02:16.331Z,10.56
2022-10-11T04:05:06.593Z,10.48
2022-10-11T04:07:53.850Z,10.48
2022-10-11T04:10:41.261Z,10.51
2022-10-11T04:13:27.945Z,10.55
2022-10-11T04:16:15.153Z,10.59
2022-10-11T04:19:02.568Z,10.58
2022-10-11T04:21:50.928Z,10.60
2022-10-11T04:24:38.035Z,10.60
2022-10-11T04:27:25.114Z,10.64
2022-10-11T04:30:13.618Z,10.65
2022-10-11T04:33:11.626Z,10.68
2022-10-11T04:36:01.045Z,10.68
2022-10-11T04:38:49.649Z,10.65
2022-10-11T04:41:36.746Z,10.62
2022-10-11T04:44:23.817Z,10.51
2022-10-11T04:47:10.610Z,10.53
2022-10-11T04:49:57.831Z,10.48
2022-10-11T04:52:44.817Z,10.44
2022-10-11T04:55:32.942Z,10.64
2022-10-11T04:58:20.012Z,10.65
2022-10-11T05:01:07.019Z,10.64
2022-10-11T05:03:54.246Z,10.84
2022-10-11T05:06:41.074Z,10.79
2022-10-11T05:09:27.875Z,10.73
2022-10-11T05:12:16.074Z,10.72
2022-10-11T05:15:03.419Z,10.75
2022-10-11T05:17:50.146Z,10.80
2022-10-11T05:20:37.056Z,10.75
2022-10-11T05:23:24.256Z,10.76
2022-10-11T05:26:11.343Z,10.72
2022-10-11T05:29:00.141Z,10.69
2022-10-11T05:31:47.437Z,10.83
2022-10-11T05:34:34.721Z,10.98
2022-10-11T05:37:21.617Z,10.95
2022-10-11T05:40:11.072Z,10.96
2022-10-11T05:42:58.346Z,11.11
2022-10-11T05:45:47.625Z,11.14
2022-10-11T05:48:35.489Z,11.17
2022-10-11T05:51:23.061Z,11.42
2022-10-11T05:54:09.882Z,11.56
2022-10-11T05:56:57.032Z,11.56
2022-10-11T05:59:44.283Z,11.51
2022-10-11T06:02:32.433Z,11.87
2022-10-11T06:05:19.831Z,11.64
2022-10-11T06:08:08.985Z,11.51
2022-10-11T06:10:56.283Z,11.62
2022-10-11T06:13:43.743Z,11.75
2022-10-11T06:16:30.953Z,11.88
2022-10-11T06:19:21.073Z,11.95
2022-10-11T06:22:12.263Z,11.94
2022-10-11T06:24:59.294Z,12.03
2022-10-11T06:27:46.405Z,12.08
2022-10-11T06:30:33.621Z,12.08
2022-10-11T06:33:20.577Z,12.21
2022-10-11T06:36:12.243Z,12.42
2022-10-11T06:39:01.473Z,12.55
2022-10-11T06:41:48.170Z,12.22
2022-10-11T06:44:35.126Z,12.21
2022-10-11T06:47:22.350Z,12.20
2022-10-11T06:50:09.752Z,12.17
2022-10-11T06:52:58.014Z,12.32
2022-10-11T06:55:45.287Z,12.34
2022-10-11T06:58:32.958Z,12.47
2022-10-11T07:01:21.674Z,12.55
2022-10-11T07:04:08.979Z,12.66
2022-10-11T07:06:55.792Z,12.79
2022-10-11T07:09:44.184Z,13.04
2022-10-11T07:12:31.292Z,13.21
2022-10-11T07:15:18.465Z,13.44
2022-10-11T07:18:05.842Z,13.97
2022-10-11T07:20:52.729Z,13.91
2022-10-11T07:23:39.521Z,14.31
2022-10-11T07:26:32.494Z,14.47
2022-10-11T07:29:24.038Z,14.69
2022-10-11T07:32:10.778Z,14.95
2022-10-11T07:34:57.726Z,15.19
2022-10-11T07:37:45.149Z,15.39
2022-10-11T07:40:32.035Z,15.74
2022-10-11T07:43:20.579Z,15.99
2022-10-11T07:46:08.275Z,16.21
2022-10-11T07:48:56.419Z,16.28
2022-10-11T07:51:43.265Z,16.53
2022-10-11T07:54:30.139Z,16.64
2022-10-11T07:57:17.525Z,16.45
2022-10-11T08:00:07.209Z,16.87
2022-10-11T08:02:58.940Z,17.38
2022-10-11T08:05:45.810Z,17.38
2022-10-11T08:08:33.611Z,17.50
2022-10-11T08:11:22.257Z,17.42
2022-10-11T08:14:11.354Z,17.31
2022-10-11T08:16:59.769Z,17.54
2022-10-11T08:19:46.375Z,17.37
2022-10-11T08:22:33.470Z,17.31
2022-10-11T08:25:20.537Z,17.09
2022-10-11T08:28:07.921Z,17.10
2022-10-11T08:30:55.993Z,17.29
2022-10-11T08:33:44.210Z,17.48
2022-10-11T08:36:31.174Z,17.55
2022-10-11T08:39:18.127Z,17.54
2022-10-11T08:42:08.556Z,17.39
2022-10-11T08:45:10.512Z,17.49
2022-10-11T08:48:04.193Z,17.28
2022-10-11T08:50:55.802Z,17.05
2022-10-11T08:53:50.162Z,17.21
2022-10-11T08:56:40.001Z,17.47
2022-10-11T08:59:32.697Z,17.50
2022-10-11T09:02:55.654Z,17.32
2022-10-11T09:05:49.774Z,17.52
2022-10-11T09:08:50.798Z,17.55
2022-10-11T09:11:49.019Z,17.38
2022-10-11T09:14:50.055Z,17.45
2022-10-11T09:17:57.178Z,17.34
2022-10-11T09:20:57.503Z,17.10
2022-10-11T09:24:03.969Z,16.97
2022-10-11T09:26:37.417Z,17.20
2022-10-11T09:29:09.717Z,17.15
2022-10-11T09:31:38.087Z,17.64
2022-10-11T09:34:12.196Z,17.76
2022-10-11T09:36:43.090Z,17.85
2022-10-11T09:39:21.824Z,17.63
2022-10-11T09:41:55.355Z,17.67
2022-10-11T09:44:25.677Z,17.83
2022-10-11T09:46:55.923Z,18.26
2022-10-11T09:49:28.978Z,18.99
2022-10-11T09:51:59.108Z,19.18
2022-10-11T09:54:40.525Z,19.82
2022-10-11T09:57:20.377Z,19.99
2022-10-11T10:00:03.721Z,20.56
2022-10-11T10:02:47.013Z,20.50
2022-10-11T10:05:18.947Z,20.67
2022-10-11T10:08:07.221Z,21.27
2022-10-11T10:10:39.921Z,21.13
2022-10-11T10:13:21.920Z,21.47
2022-10-11T10:15:53.589Z,21.64
2022-10-11T10:18:25.748Z,21.35
2022-10-11T10:20:55.658Z,21.41
2022-10-11T10:23:26.203Z,21.51
2022-10-11T10:26:11.209Z,22.04
2022-10-11T10:28:40.138Z,22.04
2022-10-11T10:31:22.483Z,21.61
2022-10-11T10:33:52.941Z,21.71
2022-10-11T10:36:24.816Z,21.71
2022-10-11T10:38:58.539Z,21.97
2022-10-11T10:41:28.414Z,21.72
2022-10-11T10:43:58.586Z,21.77
2022-10-11T10:46:35.154Z,22.38
2022-10-11T10:49:34.922Z,22.47
2022-10-11T10:52:21.613Z,22.39
2022-10-11T10:54:56.159Z,22.17
2022-10-11T10:57:29.825Z,22.41
2022-10-11T11:00:06.915Z,22.52
2022-10-11T11:02:43.836Z,23.15
2022-10-11T11:05:22.925Z,22.80
2022-10-11T11:07:53.533Z,22.99
2022-10-11T11:10:25.062Z,23.18
2022-10-11T11:13:02.721Z,22.85
2022-10-11T11:15:38.325Z,22.73
2022-10-11T11:18:20.356Z,22.82
2022-10-11T11:20:56.660Z,23.29
2022-10-11T11:23:31.829Z,22.62
2022-10-11T11:26:08.089Z,22.92
2022-10-11T11:28:48.867Z,23.08
2022-10-11T11:31:34.967Z,23.24
2022-10-11T11:34:06.930Z,23.54
2022-10-11T11:36:40.429Z,23.32
2022-10-11T11:39:13.693Z,23.23
2022-10-11T11:41:45.005Z,23.72
2022-10-11T11:44:20.896Z,23.90
2022-10-11T11:46:56.676Z,23.55
2022-10-11T11:49:29.583Z,23.51
2022-10-11T11:51:58.548Z,23.41
2022-10-11T11:54:37.358Z,23.85
2022-10-11T11:57:13.217Z,24.81
2022-10-11T11:59:47.257Z,24.88
2022-10-11T12:02:44.211Z,24.93
2022-10-11T12:05:14.891Z,24.70
2022-10-11T12:07:51.252Z,23.94
2022-10-11T12:10:32.632Z,23.96
2022-10-11T12:13:09.165Z,24.69
2022-10-11T12:15:39.316Z,25.16
2022-10-11T12:18:16.373Z,23.70
2022-10-11T12:20:45.480Z,24.26
2022-10-11T12:23:40.051Z,24.21
2022-10-11T12:26:32.210Z,24.83
2022-10-11T12:29:28.877Z,25.29
2022-10-11T12:34:52.863Z,24.75
2022-10-11T12:37:50.749Z,24.89
2022-10-11T12:40:37.263Z,24.36
2022-10-11T12:43:42.060Z,25.11
2022-10-11T12:46:40.459Z,25.35
2022-10-11T12:49:43.204Z,24.79
2022-10-11T12:52:27.053Z,24.89
2022-10-11T12:55:19.232Z,24.50
2022-10-11T12:58:24.957Z,24.94
2022-10-11T13:01:13.377Z,25.49
2022-10-11T13:03:43.106Z,25.27
2022-10-11T13:06:13.699Z,25.03
2022-10-11T13:08:45.885Z,24.82
2022-10-11T13:11:19.449Z,25.28
2022-10-11T13:13:52.035Z,25.06
2022-10-11T13:16:22.429Z,25.55
2022-10-11T13:18:56.623Z,26.02
2022-10-11T13:21:32.116Z,26.69
2022-10-11T13:24:03.867Z,26.64
2022-10-11T13:26:32.729Z,27.00
2022-10-11T13:29:01.588Z,26.53
2022-10-11T13:31:29.965Z,26.10
2022-10-11T13:34:00.251Z,26.12
2022-10-11T13:36:29.058Z,25.58
2022-10-11T13:38:59.035Z,25.30
2022-10-11T13:41:30.912Z,24.87
2022-10-11T13:44:00.546Z,24.28
2022-10-11T13:46:30.635Z,24.78
2022-10-11T13:49:03.206Z,25.05
2022-10-11T13:51:36.373Z,25.27
2022-10-11T13:54:09.461Z,25.24
2022-10-11T13:56:47.734Z,24.79
2022-10-11T13:59:19.394Z,24.67
2022-10-11T14:01:48.342Z,24.79
2022-10-11T14:04:18.381Z,25.22
2022-10-11T14:06:49.673Z,24.89
2022-10-11T14:09:21.520Z,24.36
2022-10-11T14:11:51.529Z,23.92
2022-10-11T14:14:31.044Z,23.32
2022-10-11T14:17:01.241Z,23.00
2022-10-11T14:19:29.678Z,23.29
2022-10-11T14:21:58.009Z,23.35
2022-10-11T14:24:26.437Z,23.08
2022-10-11T14:26:56.420Z,23.00
2022-10-11T14:29:26.574Z,22.37
2022-10-11T14:31:56.634Z,21.94
2022-10-11T14:34:25.973Z,21.58
2022-10-11T14:36:54.329Z,21.35
2022-10-11T14:39:23.796Z,21.41
2022-10-11T14:41:53.192Z,21.24
2022-10-11T14:44:23.364Z,20.91
2022-10-11T14:46:54.818Z,20.62
2022-10-11T14:49:25.240Z,20.47
2022-10-11T14:51:54.894Z,20.23
2022-10-11T14:54:24.470Z,20.05
2022-10-11T14:56:54.254Z,20.17
2022-10-11T14:59:25.867Z,20.06
2022-10-11T15:01:54.724Z,20.05
2022-10-11T15:04:23.497Z,20.05
2022-10-11T15:06:52.965Z,20.04
2022-10-11T15:09:21.921Z,19.85
2022-10-11T15:11:51.275Z,19.86
2022-10-11T15:14:19.539Z,19.89
2022-10-11T15:16:49.442Z,19.45
2022-10-11T15:19:18.938Z,19.27
2022-10-11T15:21:47.526Z,19.23
2022-10-11T15:24:16.156Z,19.15
2022-10-11T15:26:45.734Z,18.98
2022-10-11T15:29:14.253Z,19.08
2022-10-11T15:31:42.571Z,19.04
2022-10-11T15:34:12.476Z,18.84
2022-10-11T15:36:41.094Z,18.65
2022-10-11T15:39:24.218Z,18.43
2022-10-11T15:41:52.530Z,18.44
2022-10-11T15:44:21.471Z,18.56
2022-10-11T15:46:49.812Z,18.46
2022-10-11T15:49:19.755Z,18.21
2022-10-11T15:51:48.116Z,18.27
2022-10-11T15:54:16.476Z,18.19
2022-10-11T15:56:44.774Z,18.06
2022-10-11T15:59:13.045Z,17.89
2022-10-11T16:01:41.442Z,17.80
2022-10-11T16:04:10.593Z,17.65
2022-10-11T16:06:41.139Z,17.63
2022-10-11T16:09:09.544Z,17.40
2022-10-11T16:11:37.928Z,17.41
2022-10-11T16:14:06.240Z,17.40
2022-10-11T16:16:34.567Z,17.41
2022-10-11T16:19:02.905Z,17.34
2022-10-11T16:21:31.261Z,17.24
2022-10-11T16:24:02.383Z,17.20
2022-10-11T16:26:30.682Z,17.18
2022-10-11T16:29:00.337Z,17.11
2022-10-11T16:31:28.796Z,17.03
2022-10-11T16:33:57.689Z,16.93
2022-10-11T16:36:36.858Z,16.88
2022-10-11T16:39:13.412Z,16.83
2022-10-11T16:41:42.772Z,16.79
2022-10-11T16:44:17.566Z,16.78
2022-10-11T16:46:48.472Z,16.76
2022-10-11T16:49:20.333Z,16.71
2022-10-11T16:51:48.857Z,16.72
2022-10-11T16:54:20.768Z,16.72
2022-10-11T16:56:49.682Z,16.74
2022-10-11T16:59:18.536Z,16.71
2022-10-11T17:01:47.214Z,16.66
2022-10-11T17:04:15.856Z,16.68
2022-10-11T17:06:45.022Z,16.74
2022-10-11T17:09:13.447Z,16.78
2022-10-11T17:11:43.666Z,16.65
2022-10-11T17:14:12.834Z,16.66
2022-10-11T17:16:41.318Z,16.50
2022-10-11T17:19:11.398Z,16.39
2022-10-11T17:21:40.327Z,16.26
2022-10-11T17:24:10.359Z,16.28
2022-10-11T17:26:38.835Z,16.11
2022-10-11T17:29:09.090Z,16.20
2022-10-11T17:31:38.537Z,16.09
2022-10-11T17:34:07.164Z,16.13
2022-10-11T17:36:35.872Z,16.12
2022-10-11T17:39:06.632Z,16.19
2022-10-11T17:41:35.635Z,16.55
2022-10-11T17:44:04.637Z,16.83
2022-10-11T17:46:36.273Z,16.87
2022-10-11T17:49:06.993Z,16.64
2022-10-11T17:51:37.249Z,16.43
2022-10-11T17:54:06.724Z,16.06
2022-10-11T17:56:38.184Z,16.27
2022-10-11T17:59:09.914Z,15.95
2022-10-11T18:01:41.353Z,15.92
2022-10-11T18:04:17.446Z,15.96
2022-10-11T18:06:47.726Z,15.74
2022-10-11T18:09:18.997Z,15.55
2022-10-11T18:11:49.054Z,15.32
2022-10-11T18:14:21.924Z,15.30
2022-10-11T18:17:02.492Z,15.22
2022-10-11T18:19:31.767Z,15.14
2022-10-11T18:22:05.860Z,15.21
2022-10-11T18:24:38.156Z,15.13
2022-10-11T18:27:07.217Z,15.07
2022-10-11T18:29:37.182Z,15.05
2022-10-11T18:32:13.227Z,15.20
2022-10-11T18:34:42.888Z,15.09
2022-10-11T18:37:13.432Z,15.10
2022-10-11T18:39:42.632Z,14.90
2022-10-11T18:42:11.969Z,14.80
2022-10-11T18:44:43.848Z,14.80
2022-10-11T18:47:15.071Z,14.79
2022-10-11T18:49:44.500Z,14.83
2022-10-11T18:52:13.655Z,14.77
2022-10-11T18:54:44.130Z,14.87
2022-10-11T18:57:13.555Z,14.79
2022-10-11T18:59:43.038Z,14.77
2022-10-11T19:02:15.711Z,14.97
2022-10-11T19:04:47.904Z,14.93
2022-10-11T19:07:19.564Z,14.82
2022-10-11T19:09:50.087Z,14.75
2022-10-11T19:12:22.533Z,14.64
2022-10-11T19:14:52.806Z,14.69
2022-10-11T19:17:24.389Z,14.71
2022-10-11T19:19:53.621Z,14.74
2022-10-11T19:22:23.163Z,14.72
2022-10-11T19:24:52.827Z,14.73
2022-10-11T19:27:22.835Z,14.75
2022-10-11T19:29:52.320Z,14.77
2022-10-11T19:32:22.472Z,14.75
2022-10-11T19:34:52.602Z,14.71
2022-10-11T19:37:22.192Z,14.70
2022-10-11T19:39:51.103Z,14.68
2022-10-11T19:42:20.764Z,14.70
2022-10-11T19:44:50.502Z,14.79
2022-10-11T19:47:23.535Z,14.83
2022-10-11T19:49:56.990Z,14.83
2022-10-11T19:52:27.429Z,14.76
2022-10-11T19:54:58.873Z,14.66
2022-10-11T19:57:30.075Z,14.71
2022-10-11T20:00:00.751Z,14.93
2022-10-11T20:02:30.081Z,14.94
2022-10-11T20:05:00.937Z,14.82
2022-10-11T20:07:31.021Z,14.75
2022-10-11T20:10:01.849Z,14.70
2022-10-11T20:12:32.221Z,14.67
2022-10-11T20:15:01.032Z,14.65
2022-10-11T20:17:44.510Z,14.68
2022-10-11T20:20:14.796Z,14.68
2022-10-11T20:22:43.834Z,14.68
2022-10-11T20:25:12.618Z,14.69
2022-10-11T20:27:43.538Z,14.68
2022-10-11T20:30:14.774Z,14.83
2022-10-11T20:32:44.662Z,14.93
2022-10-11T20:35:15.920Z,14.79
2022-10-11T20:37:44.512Z,14.75
2022-10-11T20:40:14.479Z,14.91
2022-10-11T20:42:43.009Z,14.88
2022-10-11T20:45:13.636Z,14.79
2022-10-11T20:47:42.579Z,14.75
2022-10-11T20:50:11.110Z,14.68
2022-10-11T20:52:55.209Z,14.66
2022-10-11T20:55:23.646Z,14.65
2022-10-11T20:57:53.962Z,14.65
2022-10-11T21:00:23.302Z,14.63
2022-10-11T21:02:51.984Z,14.62
2022-10-11T21:05:20.480Z,14.64
2022-10-11T21:07:50.470Z,14.65
2022-10-11T21:10:23.420Z,14.65
2022-10-11T21:12:52.924Z,14.64
2022-10-11T21:15:24.748Z,14.67
2022-10-11T21:17:54.433Z,14.68
2022-10-11T21:20:23.024Z,14.68
2022-10-11T21:22:52.750Z,14.65
2022-10-11T21:25:21.440Z,14.53
2022-10-11T21:27:49.894Z,14.52
2022-10-11T21:30:18.651Z,14.55
2022-10-11T21:32:47.068Z,14.55
2022-10-11T21:35:15.510Z,14.53
2022-10-11T21:37:44.259Z,14.52
2022-10-11T21:40:13.977Z,14.54
2022-10-11T21:42:42.342Z,14.48
2022-10-11T21:45:10.791Z,14.47
2022-10-11T21:47:39.530Z,14.38
2022-10-11T21:50:09.005Z,14.22
2022-10-11T21:52:37.896Z,14.13
2022-10-11T21:55:06.873Z,14.05
2022-10-11T21:57:39.237Z,13.97
2022-10-11T22:00:08.978Z,14.00
2022-10-11T22:02:41.865Z,13.99
2022-10-11T22:05:10.350Z,14.00
2022-10-11T22:07:39.038Z,14.09
2022-10-11T22:10:07.876Z,14.05
2022-10-11T22:12:38.222Z,14.19
2022-10-11T22:15:08.025Z,14.19
2022-10-11T22:17:41.813Z,14.09
2022-10-11T22:20:10.913Z,14.08
2022-10-11T22:22:39.523Z,14.06
2022-10-11T22:25:09.122Z,14.05
2022-10-11T22:27:38.927Z,14.06
2022-10-11T22:30:08.405Z,14.10
2022-10-11T22:32:37.083Z,14.10
2022-10-11T22:35:06.175Z,14.07
2022-10-11T22:37:35.427Z,14.22
2022-10-11T22:40:04.431Z,14.30
2022-10-11T22:42:32.789Z,14.36
2022-10-11T22:45:02.608Z,14.48
2022-10-11T22:47:31.184Z,14.40
2022-10-11T22:49:59.550Z,14.32
2022-10-11T22:52:27.996Z,14.24
2022-10-11T22:54:59.253Z,14.22
2022-10-11T22:57:27.698Z,14.21
2022-10-11T22:59:56.060Z,14.26
2022-10-11T23:02:25.970Z,14.38
2022-10-11T23:04:54.635Z,14.27
2022-10-11T23:07:24.649Z,14.22
2022-10-11T23:09:53.154Z,14.25
2022-10-11T23:12:21.542Z,14.22
2022-10-11T23:14:49.922Z,14.21
2022-10-11T23:17:18.352Z,14.15
2022-10-11T23:19:48.351Z,14.09
2022-10-11T23:22:16.868Z,14.05
2022-10-11T23:24:45.119Z,14.05
2022-10-11T23:27:13.339Z,14.04
2022-10-11T23:29:41.682Z,14.00
2022-10-11T23:32:12.415Z,13.95
2022-10-11T23:34:40.778Z,13.91
2022-10-11T23:37:10.764Z,13.90
2022-10-11T23:39:39.209Z,13.92
2022-10-11T23:42:08.716Z,14.37
2022-10-11T23:44:37.066Z,14.17
2022-10-11T23:47:05.420Z,14.21
2022-10-11T23:49:33.955Z,14.47
2022-10-11T23:52:02.417Z,14.57
2022-10-11T23:54:32.299Z,14.43
2022-10-11T23:57:00.778Z,14.28
2022-10-11T23:59:29.730Z,14.10
